Terminal Aerodrome Forecast
Issued by NWS Austin/San Antonio, TX

Home | Current Version | Previous Version | Text Only | Print | Product List | Glossary On
Versions: 1 2 3 4 5 6 7 8 9 10 11 12 13 14 15 16 17 18
000
FTUS44 KEWX 302320
TAFSAT
TAF
KSAT 302320Z 3100/0106 15008KT P6SM FEW080 SCT250
     FM310700 VRB04KT P6SM SCT070 SCT250
     FM311800 07007KT P6SM SCT070 SCT250 PROB30 3120/3124 -TSRA
      BKN050CB=

USA.gov is the U.S. government's official web portal to all federal, state and local government web resources and services.